Kota Kinabalu, Malaysia
Current Conditions -  °F | °C
As of 11:30 AM on Thursday 23 Oct 2014 (Local Time) from WBKK Reporting Station
Broken Clouds Broken Clouds  
Wind Chill: 91°   Ceiling: 28000
Heat Index: 114°   Visibility: 6mi
Dew Point: 82°   Wind: 2mph
Humidity: 75%   Direction: 270°W
Pressure: 29.85"   Gusts: NA
Location:  5.97°N, 116.07°E
Report Text: WBKK 230330Z 27002KT 9999 FEW014 SCT140 BKN280 33/28 Q1011 NOSIG
Loading
Personal Weather Stations






























Interactive Weather Map New forecast layout! Learn more

10-Day Weather Forecast

Advertisements
Track Severe Weather on mobile